createdAt,value
2023-02-25T00:02:24.852Z,72.04
2023-02-25T00:05:26.660Z,72.16
2023-02-25T00:08:28.482Z,72.24
2023-02-25T00:11:30.387Z,72.19
2023-02-25T00:14:32.065Z,72.26
2023-02-25T00:17:34.081Z,72.15
2023-02-25T00:20:39.926Z,72.15
2023-02-25T00:23:43.292Z,72.14
2023-02-25T00:26:45.279Z,72.30
2023-02-25T00:29:52.106Z,72.39
2023-02-25T00:32:53.720Z,72.48
2023-02-25T00:35:55.328Z,72.61
2023-02-25T00:38:57.770Z,72.80
2023-02-25T00:41:59.355Z,72.58
2023-02-25T00:45:00.918Z,72.66
2023-02-25T00:48:02.517Z,72.68
2023-02-25T00:51:05.968Z,72.64
2023-02-25T00:54:07.552Z,72.65
2023-02-25T00:57:09.389Z,72.68
2023-02-25T01:00:16.303Z,72.70
2023-02-25T01:03:18.069Z,72.73
2023-02-25T01:06:20.011Z,72.92
2023-02-25T01:09:22.422Z,72.84
2023-02-25T01:12:24.090Z,73.01
2023-02-25T01:15:30.789Z,73.02
2023-02-25T01:18:34.671Z,72.96
2023-02-25T01:21:38.866Z,73.22
2023-02-25T01:24:40.344Z,73.25
2023-02-25T01:27:41.996Z,73.36
2023-02-25T01:30:45.037Z,73.52
2023-02-25T01:33:46.882Z,73.49
2023-02-25T01:36:49.091Z,73.66
2023-02-25T01:39:50.761Z,73.57
2023-02-25T01:42:52.906Z,73.67
2023-02-25T01:45:56.409Z,73.55
2023-02-25T01:48:58.370Z,73.65
2023-02-25T01:52:09.885Z,73.48
2023-02-25T01:55:11.658Z,73.60
2023-02-25T01:58:13.523Z,73.61
2023-02-25T02:01:19.357Z,73.70
2023-02-25T02:04:22.290Z,73.71
2023-02-25T02:07:24.855Z,73.78
2023-02-25T02:10:26.540Z,73.76
2023-02-25T02:13:29.642Z,73.74
2023-02-25T02:16:41.356Z,73.69
2023-02-25T02:19:52.178Z,73.67
2023-02-25T02:23:12.348Z,73.40
2023-02-25T02:26:16.936Z,73.47
2023-02-25T02:29:27.101Z,73.49
2023-02-25T02:32:48.353Z,73.70
2023-02-25T02:36:08.485Z,73.64
2023-02-25T02:39:39.070Z,73.61
2023-02-25T02:43:49.471Z,73.81
2023-02-25T02:47:25.913Z,74.18
2023-02-25T02:50:30.879Z,74.25
2023-02-25T02:53:37.232Z,74.40
2023-02-25T02:56:40.736Z,74.42
2023-02-25T02:59:47.692Z,74.42
2023-02-25T03:02:52.929Z,74.44
2023-02-25T03:05:54.850Z,74.51
2023-02-25T03:09:03.542Z,74.52
2023-02-25T03:12:07.767Z,74.43
2023-02-25T03:15:10.151Z,74.41
2023-02-25T03:18:39.412Z,74.42
2023-02-25T03:21:49.608Z,74.32
2023-02-25T03:24:55.813Z,74.44
2023-02-25T03:28:03.653Z,74.56
2023-02-25T03:31:09.689Z,74.65
2023-02-25T03:34:21.592Z,74.85
2023-02-25T03:37:26.585Z,74.87
2023-02-25T03:40:28.951Z,75.03
2023-02-25T03:43:36.149Z,75.09
2023-02-25T03:46:39.681Z,75.21
2023-02-25T03:49:47.267Z,75.20
2023-02-25T03:52:48.906Z,75.22
2023-02-25T03:56:09.254Z,75.40
2023-02-25T03:59:11.238Z,75.37
2023-02-25T04:02:15.821Z,75.32
2023-02-25T04:05:19.742Z,75.28
2023-02-25T04:08:21.631Z,75.08
2023-02-25T04:11:23.231Z,75.14
2023-02-25T04:14:25.145Z,75.06
2023-02-25T04:17:26.807Z,75.12
2023-02-25T04:20:29.899Z,75.03
2023-02-25T04:23:31.543Z,75.14
2023-02-25T04:26:34.406Z,75.17
2023-02-25T04:29:36.042Z,75.34
2023-02-25T04:32:37.807Z,75.41
2023-02-25T04:35:39.678Z,75.43
2023-02-25T04:38:42.388Z,75.57
2023-02-25T04:41:44.491Z,75.73
2023-02-25T04:44:46.368Z,75.71
2023-02-25T04:47:47.972Z,75.70
2023-02-25T04:50:49.658Z,75.85
2023-02-25T04:53:51.392Z,75.96
2023-02-25T04:56:52.983Z,75.89
2023-02-25T04:59:54.573Z,76.00
2023-02-25T05:02:56.548Z,75.96
2023-02-25T05:05:58.357Z,75.92
2023-02-25T05:08:59.945Z,75.78
2023-02-25T05:12:02.116Z,75.74
2023-02-25T05:15:05.258Z,75.80
2023-02-25T05:18:07.141Z,75.83
2023-02-25T05:21:14.651Z,75.82
2023-02-25T05:24:16.620Z,75.87
2023-02-25T05:27:18.174Z,75.86
2023-02-25T05:30:19.826Z,75.78
2023-02-25T05:33:21.421Z,75.78
2023-02-25T05:36:25.828Z,75.76
2023-02-25T05:39:29.166Z,75.71
2023-02-25T05:42:30.731Z,75.80
2023-02-25T05:45:32.536Z,75.81
2023-02-25T05:48:34.036Z,75.91
2023-02-25T05:51:35.560Z,75.84
2023-02-25T05:54:37.128Z,75.91
2023-02-25T05:57:38.717Z,75.83
2023-02-25T06:00:40.445Z,75.79
2023-02-25T06:03:43.688Z,75.72
2023-02-25T06:06:50.388Z,76.03
2023-02-25T06:09:52.177Z,75.89
2023-02-25T06:12:53.788Z,76.02
2023-02-25T06:15:55.484Z,75.94
2023-02-25T06:18:57.210Z,75.95
2023-02-25T06:21:58.793Z,75.86
2023-02-25T06:25:00.353Z,75.70
2023-02-25T06:28:02.454Z,75.75
2023-02-25T06:31:11.081Z,76.02
2023-02-25T06:34:12.785Z,75.80
2023-02-25T06:37:16.383Z,75.90
2023-02-25T06:40:18.399Z,76.04
2023-02-25T06:43:19.916Z,76.02
2023-02-25T06:46:24.157Z,76.08
2023-02-25T06:49:25.903Z,76.08
2023-02-25T06:52:27.528Z,76.10
2023-02-25T06:55:29.106Z,76.24
2023-02-25T06:58:30.660Z,76.31
2023-02-25T07:01:32.284Z,76.52
2023-02-25T07:04:34.045Z,76.70
2023-02-25T07:07:35.592Z,76.80
2023-02-25T07:10:37.173Z,76.98
2023-02-25T07:13:38.762Z,77.13
2023-02-25T07:16:40.563Z,77.06
2023-02-25T07:19:42.132Z,77.19
2023-02-25T07:22:43.966Z,77.30
2023-02-25T07:25:46.854Z,77.30
2023-02-25T07:28:48.413Z,77.44
2023-02-25T07:31:50.093Z,77.43
2023-02-25T07:34:51.695Z,77.54
2023-02-25T07:37:53.248Z,77.59
2023-02-25T07:40:54.866Z,77.66
2023-02-25T07:43:56.531Z,77.74
2023-02-25T07:46:58.284Z,77.80
2023-02-25T07:49:59.861Z,77.79
2023-02-25T07:53:01.429Z,77.73
2023-02-25T07:56:03.109Z,77.83
2023-02-25T07:59:04.635Z,77.68
2023-02-25T08:02:06.404Z,77.58
2023-02-25T08:05:09.184Z,77.56
2023-02-25T08:08:10.700Z,77.46
2023-02-25T08:11:13.771Z,77.28
2023-02-25T08:14:15.401Z,77.10
2023-02-25T08:17:17.472Z,77.01
2023-02-25T08:20:19.130Z,76.77
2023-02-25T08:23:20.698Z,76.60
2023-02-25T08:26:23.793Z,76.53
2023-02-25T08:29:25.591Z,76.38
2023-02-25T08:32:27.636Z,76.23
2023-02-25T08:35:29.218Z,76.20
2023-02-25T08:38:30.789Z,75.93
2023-02-25T08:41:32.448Z,75.79
2023-02-25T08:44:33.957Z,75.65
2023-02-25T08:47:37.417Z,75.36
2023-02-25T08:50:38.976Z,75.28
2023-02-25T08:53:41.111Z,75.14
2023-02-25T08:56:46.044Z,75.07
2023-02-25T08:59:48.782Z,74.91
2023-02-25T09:02:50.383Z,74.82
2023-02-25T09:05:56.005Z,74.73
2023-02-25T09:08:57.943Z,74.57
2023-02-25T09:12:00.208Z,74.56
2023-02-25T09:15:02.565Z,74.39
2023-02-25T09:18:04.576Z,74.11
2023-02-25T09:21:07.335Z,73.87
2023-02-25T09:24:09.317Z,73.77
2023-02-25T09:27:10.921Z,73.64
2023-02-25T09:30:12.976Z,73.42
2023-02-25T09:33:14.877Z,73.28
2023-02-25T09:36:19.029Z,73.18
2023-02-25T09:39:20.620Z,73.08
2023-02-25T09:42:23.645Z,73.07
2023-02-25T09:45:26.474Z,73.11
2023-02-25T09:48:32.090Z,72.87
2023-02-25T09:51:37.076Z,72.78
2023-02-25T09:54:44.617Z,72.60
2023-02-25T09:58:02.955Z,72.44
2023-02-25T10:01:10.476Z,72.22
2023-02-25T10:04:30.462Z,72.01
2023-02-25T10:07:35.960Z,71.69
2023-02-25T10:10:53.008Z,71.60
2023-02-25T10:13:59.872Z,71.35
2023-02-25T10:17:27.342Z,71.12
2023-02-25T10:20:49.425Z,70.82
2023-02-25T10:24:03.225Z,70.51
2023-02-25T10:27:17.362Z,70.31
2023-02-25T10:30:59.723Z,70.03
2023-02-25T10:34:18.387Z,69.82
2023-02-25T10:37:26.991Z,69.59
2023-02-25T10:40:31.557Z,69.40
2023-02-25T10:43:34.457Z,69.25
2023-02-25T10:46:39.044Z,69.01
2023-02-25T10:49:40.703Z,68.75
2023-02-25T10:53:01.906Z,68.50
2023-02-25T10:56:04.114Z,68.15
2023-02-25T10:59:24.534Z,67.88
2023-02-25T11:02:28.729Z,67.48
2023-02-25T11:05:31.564Z,67.28
2023-02-25T11:08:33.345Z,67.10
2023-02-25T11:11:39.141Z,66.76
2023-02-25T11:14:40.766Z,66.47
2023-02-25T11:17:44.270Z,66.25
2023-02-25T11:20:56.650Z,66.19
2023-02-25T11:24:05.213Z,65.90
2023-02-25T11:27:08.111Z,65.76
2023-02-25T11:30:12.367Z,65.59
2023-02-25T11:33:34.924Z,65.47
2023-02-25T11:36:38.925Z,64.93
2023-02-25T11:39:52.346Z,64.49
2023-02-25T11:43:01.321Z,63.91
2023-02-25T11:46:08.448Z,63.39
2023-02-25T11:49:10.503Z,63.03
2023-02-25T11:52:33.905Z,62.42
2023-02-25T11:55:35.480Z,61.89
2023-02-25T11:58:52.318Z,61.54
2023-02-25T12:02:15.598Z,61.06
2023-02-25T12:05:32.260Z,60.53
2023-02-25T12:09:05.723Z,60.08
2023-02-25T12:12:17.608Z,59.49
2023-02-25T12:15:45.225Z,58.87
2023-02-25T12:19:11.499Z,58.48
2023-02-25T12:22:16.126Z,58.08
2023-02-25T12:25:28.607Z,57.65
2023-02-25T12:28:45.575Z,57.45
2023-02-25T12:32:16.444Z,57.04
2023-02-25T12:35:30.152Z,56.34
2023-02-25T12:38:55.984Z,55.85
2023-02-25T12:42:25.527Z,55.62
2023-02-25T12:45:33.034Z,55.19
2023-02-25T12:48:56.274Z,54.80
2023-02-25T12:52:35.622Z,54.09
2023-02-25T12:55:57.092Z,53.52
2023-02-25T12:59:01.401Z,53.54
2023-02-25T13:02:20.043Z,53.28
2023-02-25T13:05:52.719Z,52.83
2023-02-25T13:09:12.397Z,52.89
2023-02-25T13:12:47.029Z,52.71
2023-02-25T13:15:54.571Z,52.40
2023-02-25T13:19:26.728Z,51.86
2023-02-25T13:22:34.479Z,52.00
2023-02-25T13:26:08.550Z,51.82
2023-02-25T13:29:33.917Z,51.89
2023-02-25T13:33:00.326Z,51.95
2023-02-25T13:36:25.315Z,52.00
2023-02-25T13:39:45.814Z,51.98
2023-02-25T13:43:03.702Z,52.00
2023-02-25T13:46:28.568Z,52.10
2023-02-25T13:50:07.902Z,52.21
2023-02-25T13:53:32.376Z,52.25
2023-02-25T13:57:06.565Z,52.18
2023-02-25T14:00:42.121Z,52.19
2023-02-25T14:04:05.446Z,52.63
2023-02-25T14:07:22.016Z,52.69
2023-02-25T14:10:45.135Z,52.66
2023-02-25T14:14:13.409Z,52.80
2023-02-25T14:17:59.199Z,52.86
2023-02-25T14:21:09.295Z,53.12
2023-02-25T14:24:32.207Z,53.08
2023-02-25T14:27:41.934Z,53.07
2023-02-25T14:31:07.389Z,53.16
2023-02-25T14:34:27.851Z,53.29
2023-02-25T14:37:34.917Z,53.45
2023-02-25T14:40:42.531Z,53.39
2023-02-25T14:43:46.797Z,53.36
2023-02-25T14:46:52.975Z,53.44
2023-02-25T14:50:03.541Z,53.63
2023-02-25T14:53:35.932Z,53.65
2023-02-25T14:56:51.363Z,53.62
2023-02-25T15:00:30.974Z,53.75
2023-02-25T15:04:00.472Z,53.88
2023-02-25T15:07:15.369Z,54.07
2023-02-25T15:10:30.097Z,54.01
2023-02-25T15:13:34.822Z,53.95
2023-02-25T15:16:42.550Z,54.13
2023-02-25T15:20:04.462Z,54.18
2023-02-25T15:23:11.728Z,54.44
2023-02-25T15:26:21.761Z,54.39
2023-02-25T15:29:29.316Z,54.63
2023-02-25T15:32:46.819Z,54.69
2023-02-25T15:35:48.323Z,54.89
2023-02-25T15:38:51.811Z,54.83
2023-02-25T15:42:03.770Z,55.04
2023-02-25T15:45:29.359Z,55.10
2023-02-25T15:48:33.753Z,55.20
2023-02-25T15:51:44.537Z,55.28
2023-02-25T15:54:47.198Z,55.20
2023-02-25T15:57:48.857Z,55.35
2023-02-25T16:01:05.966Z,55.39
2023-02-25T16:04:50.284Z,55.56
2023-02-25T16:08:03.224Z,55.62
2023-02-25T16:11:06.822Z,55.68
2023-02-25T16:14:15.689Z,55.67
2023-02-25T16:17:28.867Z,55.77
2023-02-25T16:20:34.277Z,56.01
2023-02-25T16:23:40.046Z,56.11
2023-02-25T16:27:04.524Z,56.10
2023-02-25T16:30:26.086Z,56.35
2023-02-25T16:33:44.625Z,56.34
2023-02-25T16:37:11.621Z,56.51
2023-02-25T16:40:40.258Z,56.63
2023-02-25T16:43:43.444Z,56.69
2023-02-25T16:46:50.182Z,56.96
2023-02-25T16:49:53.354Z,57.10
2023-02-25T16:52:55.407Z,57.18
2023-02-25T16:55:58.855Z,57.47
2023-02-25T16:59:21.773Z,57.57
2023-02-25T17:02:25.106Z,57.81
2023-02-25T17:05:26.617Z,57.87
2023-02-25T17:08:28.382Z,57.94
2023-02-25T17:11:30.417Z,57.97
2023-02-25T17:14:32.224Z,58.17
2023-02-25T17:17:37.262Z,58.26
2023-02-25T17:20:39.991Z,58.36
2023-02-25T17:23:42.035Z,58.43
2023-02-25T17:26:46.185Z,58.62
2023-02-25T17:29:48.887Z,58.59
2023-02-25T17:32:58.940Z,58.77
2023-02-25T17:36:12.126Z,58.86
2023-02-25T17:39:20.934Z,58.93
2023-02-25T17:42:34.791Z,59.12
2023-02-25T17:45:39.186Z,59.19
2023-02-25T17:48:43.347Z,59.26
2023-02-25T17:51:46.054Z,59.39
2023-02-25T17:54:53.732Z,59.52
2023-02-25T17:57:58.170Z,59.63
2023-02-25T18:01:02.834Z,59.66
2023-02-25T18:04:06.073Z,59.85
2023-02-25T18:07:23.200Z,59.88
2023-02-25T18:10:30.884Z,59.98
2023-02-25T18:13:37.350Z,60.08
2023-02-25T18:16:41.163Z,60.28
2023-02-25T18:19:46.008Z,60.38
2023-02-25T18:22:48.686Z,60.77
2023-02-25T18:26:09.627Z,61.01
2023-02-25T18:29:20.594Z,61.33
2023-02-25T18:32:22.146Z,61.37
2023-02-25T18:35:24.187Z,61.45
2023-02-25T18:38:27.042Z,61.44
2023-02-25T18:41:28.703Z,61.45
2023-02-25T18:44:30.235Z,61.55
2023-02-25T18:47:31.797Z,61.59
2023-02-25T18:50:33.594Z,61.67
2023-02-25T18:53:35.314Z,61.69
2023-02-25T18:56:36.864Z,61.77
2023-02-25T18:59:38.402Z,61.79
2023-02-25T19:02:47.811Z,61.89
2023-02-25T19:05:49.425Z,61.95
2023-02-25T19:08:51.057Z,62.21
2023-02-25T19:11:52.711Z,62.34
2023-02-25T19:14:59.788Z,62.59
2023-02-25T19:18:01.411Z,62.50
2023-02-25T19:21:04.008Z,62.83
2023-02-25T19:24:06.344Z,62.94
2023-02-25T19:27:27.508Z,63.17
2023-02-25T19:30:31.313Z,63.25
2023-02-25T19:33:33.773Z,63.22
2023-02-25T19:36:35.354Z,63.37
2023-02-25T19:39:36.900Z,63.45
2023-02-25T19:42:39.511Z,63.50
2023-02-25T19:45:41.168Z,63.53
2023-02-25T19:48:43.392Z,63.55
2023-02-25T19:51:44.994Z,63.58
2023-02-25T19:54:46.576Z,63.62
2023-02-25T19:57:48.370Z,63.75
2023-02-25T20:00:50.025Z,63.88
2023-02-25T20:03:52.220Z,64.09
2023-02-25T20:06:53.807Z,64.15
2023-02-25T20:09:55.308Z,64.30
2023-02-25T20:12:56.898Z,64.45
2023-02-25T20:16:01.865Z,64.58
2023-02-25T20:19:03.546Z,64.67
2023-02-25T20:22:06.198Z,64.58
2023-02-25T20:25:09.990Z,64.64
2023-02-25T20:28:11.772Z,64.56
2023-02-25T20:31:16.288Z,64.65
2023-02-25T20:34:21.553Z,64.55
2023-02-25T20:37:24.728Z,64.57
2023-02-25T20:40:26.587Z,64.70
2023-02-25T20:43:28.402Z,64.72
2023-02-25T20:46:30.028Z,64.84
2023-02-25T20:49:31.688Z,64.96
2023-02-25T20:52:33.349Z,65.12
2023-02-25T20:55:34.920Z,65.19
2023-02-25T20:58:36.665Z,65.42
2023-02-25T21:01:38.340Z,65.66
2023-02-25T21:04:39.992Z,65.62
2023-02-25T21:07:41.657Z,65.69
2023-02-25T21:10:43.475Z,65.64
2023-02-25T21:13:47.884Z,65.86
2023-02-25T21:16:54.301Z,65.81
2023-02-25T21:19:55.918Z,65.82
2023-02-25T21:22:57.520Z,65.81
2023-02-25T21:25:59.040Z,65.74
2023-02-25T21:29:00.640Z,65.85
2023-02-25T21:32:02.257Z,65.85
2023-02-25T21:35:04.358Z,66.08
2023-02-25T21:38:05.921Z,66.12
2023-02-25T21:41:10.840Z,66.25
2023-02-25T21:44:12.759Z,66.32
2023-02-25T21:47:14.486Z,66.42
2023-02-25T21:50:16.445Z,66.43
2023-02-25T21:53:18.652Z,66.48
2023-02-25T21:56:20.200Z,66.38
2023-02-25T21:59:23.322Z,66.35
2023-02-25T22:02:25.784Z,66.36
2023-02-25T22:05:27.362Z,66.45
2023-02-25T22:08:28.886Z,66.40
2023-02-25T22:11:32.640Z,66.49
2023-02-25T22:14:34.374Z,66.42
2023-02-25T22:17:36.494Z,66.55
2023-02-25T22:20:38.039Z,66.67
2023-02-25T22:23:40.963Z,66.74
2023-02-25T22:26:42.534Z,66.86
2023-02-25T22:29:44.046Z,67.08
2023-02-25T22:32:45.582Z,67.08
2023-02-25T22:35:58.382Z,67.05
2023-02-25T22:39:04.138Z,67.12
2023-02-25T22:42:05.759Z,67.03
2023-02-25T22:45:07.866Z,67.07
2023-02-25T22:48:09.459Z,67.02
2023-02-25T22:51:11.870Z,67.08
2023-02-25T22:54:15.608Z,67.12
2023-02-25T22:57:17.179Z,67.13
2023-02-25T23:00:19.770Z,67.26
2023-02-25T23:03:21.749Z,67.23
2023-02-25T23:06:37.532Z,67.41
2023-02-25T23:09:45.810Z,67.55
2023-02-25T23:12:47.676Z,67.67
2023-02-25T23:15:49.629Z,67.78
2023-02-25T23:18:51.775Z,67.78
2023-02-25T23:21:53.312Z,67.81
2023-02-25T23:24:55.097Z,67.79
2023-02-25T23:27:57.836Z,67.79
2023-02-25T23:30:59.752Z,67.78
2023-02-25T23:34:04.116Z,67.77
2023-02-25T23:37:05.677Z,67.88
2023-02-25T23:40:11.720Z,68.01
2023-02-25T23:43:13.276Z,68.12
2023-02-25T23:46:14.900Z,68.27
2023-02-25T23:49:17.554Z,68.16
2023-02-25T23:52:19.094Z,68.17
2023-02-25T23:55:21.277Z,68.27
2023-02-25T23:58:22.855Z,68.22
